World Harmony — A8WQ2 — position and weather

sailwx.info

Track history (hours):
 
Tides and Currents Weather Stations Pressure Air Temp Water Temp Dewpoint Dewpoint Depression Visibility Wind Speed Wind Dir Waves Ship Positions

World Harmony

Last reported at 2017-Nov-15 21:23 UTC. Time now 2017-Nov-23 01:43 UTC.
Position N 28°11' W 116°12'.

Length 228 m; draft 8.5 m.

Type: Tanker. MMSI: 636014804.

Date/timePositionNaut miles runAvg speedWind from/ knotsBaromVisibWave heightAir tempDewpointWater temp
2017-Nov-15 21:23N 28°11' W 116°12'512.3
2017-Nov-15 21:00N 28°16' W 116°13'1612.1
2017-Nov-15 19:39N 28°31' W 116°19'211.9
2017-Nov-15 19:30N 28°33' W 116°19'2311.6
2017-Nov-15 17:32N 28°55' W 116°26'011.2
2017-Nov-15 17:30N 28°55' W 116°26'611.5
2017-Nov-15 16:58N 29°01' W 116°28'511.2
2017-Nov-15 16:31N 29°06' W 116°29'2411.4
2017-Nov-15 14:26N 29°29' W 116°37'511.5
2017-Nov-15 14:00N 29°34' W 116°38'1811.2
2017-Nov-15 12:25N 29°51' W 116°45'511.5
2017-Nov-15 12:00N 29°55' W 116°46'611.8
2017-Nov-15 11:30N 30°01' W 116°48'611.7
2017-Nov-15 10:57N 30°07' W 116°50'511.7
2017-Nov-15 10:30N 30°12' W 116°51'611.6
2017-Nov-15 10:00N 30°18' W 116°53'611.8
2017-Nov-15 09:31N 30°23' W 116°55'611.9
2017-Nov-15 09:00N 30°29' W 116°57'611.9
2017-Nov-15 08:30N 30°35' W 116°58'611.9
2017-Nov-15 07:58N 30°41' W 117°01'712.0
2017-Nov-15 07:25N 30°48' W 117°03'512.0
2017-Nov-15 07:00N 30°52' W 117°04'1111.9
2017-Nov-15 06:05N 31°03' W 117°08'112.8
2017-Nov-15 05:59N 31°04' W 117°08'611.7
2017-Nov-15 05:30N 31°09' W 117°10'612.0
2017-Nov-15 05:00N 31°15' W 117°12'612.6
2017-Nov-15 04:30N 31°21' W 117°14'2312.4
2017-Nov-15 02:40N 31°43' W 117°21'212.3
2017-Nov-15 02:31N 31°45' W 117°21'611.8
2017-Nov-15 02:01N 31°51' W 117°23'611.7
2017-Nov-15 01:31N 31°56' W 117°25'612.0
2017-Nov-15 01:00N 32°02' W 117°27'612.0
2017-Nov-15 00:31N 32°08' W 117°29'611.9
2017-Nov-15 00:00N 32°14' W 117°31'611.8
2017-Nov-14 23:31N 32°19' W 117°34'612.0
2017-Nov-14 23:01N 32°24' W 117°37'611.7
2017-Nov-14 22:31N 32°29' W 117°41'611.8
2017-Nov-14 22:01N 32°34' W 117°44'611.9
2017-Nov-14 21:30N 32°40' W 117°48'611.7
2017-Nov-14 21:01N 32°45' W 117°50'611.7
2017-Nov-14 20:30N 32°51' W 117°53'611.8
2017-Nov-14 20:01N 32°56' W 117°55'611.9
2017-Nov-14 19:30N 33°01' W 117°58'611.8
2017-Nov-14 19:01N 33°07' W 118°01'612.0
2017-Nov-14 18:30N 33°13' W 118°03'611.9
2017-Nov-14 18:00N 33°18' W 118°06'611.9
2017-Nov-14 17:31N 33°24' W 118°08'612.1
2017-Nov-14 17:01N 33°30' W 118°11'612.1
2017-Nov-14 16:30N 33°35' W 118°13'611.2
2017-Nov-14 15:58N 33°41' W 118°12'3 6.6
2017-Nov-14 15:30N 33°44' W 118°13'0 0.4
2017-Nov-14 14:27N 33°44' W 118°13'0 0.0
2017-Nov-14 11:39N 33°44' W 118°13'0 0.0
2017-Nov-14 11:27N 33°44' W 118°13'0 0.0
2017-Nov-14 10:57N 33°44' W 118°13'0 0.0
2017-Nov-14 10:21N 33°44' W 118°13'0 0.1
2017-Nov-14 09:45N 33°44' W 118°13'0 0.0
2017-Nov-14 09:21N 33°44' W 118°13'0 0.0
2017-Nov-14 08:57N 33°44' W 118°13'0 0.1
2017-Nov-14 08:21N 33°44' W 118°13'0 0.1
2017-Nov-14 07:45N 33°44' W 118°13'0 0.1
2017-Nov-14 05:01N 33°44' W 118°13'0 2.9
2017-Nov-14 04:52N 33°44' W 118°13'3 7.0
2017-Nov-14 04:30N 33°42' W 118°11'4 8.9
2017-Nov-14 04:00N 33°37' W 118°11'611.2
2017-Nov-14 03:30N 33°36' W 118°17'611.8
2017-Nov-14 02:58N 33°38' W 118°25'612.1
2017-Nov-14 02:30N 33°41' W 118°30'612.0
2017-Nov-14 02:00N 33°44' W 118°37'612.0
2017-Nov-14 01:30N 33°47' W 118°43'611.8
2017-Nov-14 01:00N 33°50' W 118°49'612.0
2017-Nov-14 00:30N 33°52' W 118°55'611.8
2017-Nov-14 00:00N 33°55' W 119°01'612.3
2017-Nov-13 23:30N 33°59' W 119°08'612.7
2017-Nov-13 23:00N 34°02' W 119°15'713.6
2017-Nov-13 22:30N 34°04' W 119°22'713.4
2017-Nov-13 22:00N 34°06' W 119°30'23711.9
2017-Nov-13 02:00N 37°05' W 122°41'612.6
2017-Nov-13 01:30N 37°11' W 122°43'612.7
2017-Nov-13 01:00N 37°17' W 122°44'511.0
2017-Nov-13 00:31N 37°23' W 122°44'510.4
2017-Nov-13 00:00N 37°28' W 122°43'510.1
2017-Nov-12 23:30N 37°33' W 122°44'5 9.8
2017-Nov-12 23:00N 37°38' W 122°44'5 9.7
2017-Nov-12 22:30N 37°43' W 122°42'5 9.4
2017-Nov-12 22:00N 37°46' W 122°38'713.3
2017-Nov-12 21:31N 37°49' W 122°30'611.1
2017-Nov-12 21:01N 37°49' W 122°23'4 7.5
2017-Nov-12 20:28N 37°46' W 122°21'0 0.1
2017-Nov-12 19:58N 37°46' W 122°21'0 0.0
2017-Nov-12 19:28N 37°46' W 122°21'0 0.0
2017-Nov-12 18:58N 37°46' W 122°21'0 0.0
2017-Nov-12 18:28N 37°46' W 122°21'0 0.0
2017-Nov-12 17:58N 37°46' W 122°21'0 0.1
2017-Nov-12 17:28N 37°46' W 122°21'0 0.0
2017-Nov-12 16:58N 37°46' W 122°21'0 0.0
2017-Nov-12 16:28N 37°46' W 122°21'0 0.3
2017-Nov-12 15:58N 37°45' W 122°21'0 0.1
2017-Nov-12 15:28N 37°45' W 122°21'0 0.0
2017-Nov-12 14:58N 37°45' W 122°21'0 0.0
2017-Nov-12 14:28N 37°45' W 122°21'0 0.1
2017-Nov-12 13:58N 37°45' W 122°21'0 0.0
2017-Nov-12 13:28N 37°45' W 122°21'0 0.0
2017-Nov-12 12:58N 37°45' W 122°21'0 0.0
2017-Nov-12 12:28N 37°45' W 122°21'0 0.0
2017-Nov-12 11:58N 37°45' W 122°21'0 0.0
2017-Nov-12 11:28N 37°45' W 122°21'0 0.0
2017-Nov-12 10:58N 37°45' W 122°21'0 0.1
2017-Nov-12 10:28N 37°45' W 122°21'0 0.4
2017-Nov-12 09:58N 37°46' W 122°21'0 0.1
2017-Nov-12 09:28N 37°46' W 122°21'0 0.2
2017-Nov-12 09:01N 37°46' W 122°21'4 7.9
2017-Nov-12 08:31N 37°49' W 122°23'713.3
2017-Nov-12 08:00N 37°55' W 122°27'714.1
2017-Nov-12 07:31N 38°01' W 122°23'713.0
2017-Nov-12 07:00N 38°04' W 122°15'611.7
2017-Nov-12 06:30N 38°02' W 122°08'0 0.0
2017-Nov-11 02:22N 38°02' W 122°08'2 3.9
2017-Nov-11 01:48N 38°03' W 122°10'3 9.1
2017-Nov-11 01:30N 38°04' W 122°14'4 9.0
2017-Nov-11 01:00N 38°03' W 122°19'4 8.6
2017-Nov-11 00:30N 38°01' W 122°24'5 9.9
2017-Nov-11 00:00N 37°56' W 122°27'5 9.3
2017-Nov-10 23:30N 37°52' W 122°25'4 8.2
2017-Nov-10 23:00N 37°49' W 122°29'611.8
2017-Nov-10 22:30N 37°47' W 122°35'510.5
2017-Nov-10 22:00N 37°44' W 122°41'3 5.8
2017-Nov-10 21:30N 37°42' W 122°44'3 5.0
2017-Nov-10 21:00N 37°41' W 122°47'4 7.7
2017-Nov-10 20:30N 37°39' W 122°51'4 8.1
2017-Nov-10 20:00N 37°36' W 122°55'4 8.3
2017-Nov-10 19:30N 37°34' W 122°59'4 8.4
2017-Nov-10 19:00N 37°32' W 123°04'5 9.1
2017-Nov-10 18:30N 37°29' W 123°08'4 7.9
2017-Nov-10 17:57N 37°25' W 123°10'4 8.8
2017-Nov-10 17:30N 37°22' W 123°08'1 2.8
2017-Nov-10 17:00N 37°21' W 123°06'4 5.7
2017-Nov-10 16:22N 37°19' W 123°03'1010.5
2017-Nov-10 15:26N 37°11' W 122°56'510.7
2017-Nov-10 15:00N 37°07' W 122°53'8210.5
2017-Nov-10 07:16N 35°51' W 122°14'310.2
2017-Nov-10 07:00N 35°49' W 122°13'22 9.9
2017-Nov-10 04:49N 35°29' W 122°01'610.5
2017-Nov-10 04:16N 35°24' W 121°58'410.4
2017-Nov-10 03:51N 35°20' W 121°56'410.3
2017-Nov-10 03:30N 35°17' W 121°54'510.2
2017-Nov-10 03:00N 35°13' W 121°51'510.4
2017-Nov-10 02:30N 35°08' W 121°48'510.4
2017-Nov-10 02:00N 35°03' W 121°45'510.2
2017-Nov-10 01:30N 34°59' W 121°42'510.1
2017-Nov-10 01:00N 34°54' W 121°39'510.2
2017-Nov-10 00:30N 34°50' W 121°36'510.4
2017-Nov-10 00:00N 34°45' W 121°33'510.5
2017-Nov-09 23:30N 34°41' W 121°31'510.3
2017-Nov-09 23:00N 34°36' W 121°28'510.2
2017-Nov-09 22:30N 34°31' W 121°25'510.3
2017-Nov-09 22:00N 34°27' W 121°22'510.5
2017-Nov-09 21:30N 34°22' W 121°19'510.3
2017-Nov-09 21:00N 34°18' W 121°16'510.5
2017-Nov-09 20:30N 34°13' W 121°14'510.6
2017-Nov-09 20:00N 34°08' W 121°11'510.3
2017-Nov-09 19:30N 34°04' W 121°08'510.2
2017-Nov-09 19:00N 33°59' W 121°05'510.7
2017-Nov-09 18:30N 33°54' W 121°02'510.5
2017-Nov-09 18:00N 33°49' W 120°60'510.5
2017-Nov-09 17:30N 33°45' W 120°57'510.2
2017-Nov-09 17:00N 33°40' W 120°54'510.7
2017-Nov-09 16:30N 33°35' W 120°51'610.8
2017-Nov-09 15:59N 33°31' W 120°48'510.6
2017-Nov-09 15:29N 33°26' W 120°45'511.0
2017-Nov-09 15:00N 33°21' W 120°42'510.9
2017-Nov-09 14:30N 33°16' W 120°40'510.8
2017-Nov-09 14:00N 33°11' W 120°37'610.6
2017-Nov-09 13:26N 33°06' W 120°34'510.9
2017-Nov-09 12:56N 33°01' W 120°31'510.9
2017-Nov-09 12:30N 32°57' W 120°28'611.2
2017-Nov-09 12:00N 32°52' W 120°25'  
Track history (hours):
 
Tides and Currents Weather Stations Pressure Air Temp Water Temp Dewpoint Dewpoint Depression Visibility Wind Speed Wind Dir Waves Ship Positions

World Harmony

Last reported at 2017-Nov-15 21:23 UTC. Time now 2017-Nov-23 01:43 UTC.
Position N 28°11' W 116°12'.

Length 228 m; draft 8.5 m.

Type: Tanker. MMSI: 636014804.

Date/timePositionNaut miles runAvg speedWind from/ knotsBaromVisibWave heightAir tempDewpointWater temp
2017-Nov-15 21:23N 28°11' W 116°12'512.3
2017-Nov-15 21:00N 28°16' W 116°13'1612.1
2017-Nov-15 19:39N 28°31' W 116°19'211.9
2017-Nov-15 19:30N 28°33' W 116°19'2311.6
2017-Nov-15 17:32N 28°55' W 116°26'011.2
2017-Nov-15 17:30N 28°55' W 116°26'611.5
2017-Nov-15 16:58N 29°01' W 116°28'511.2
2017-Nov-15 16:31N 29°06' W 116°29'2411.4
2017-Nov-15 14:26N 29°29' W 116°37'511.5
2017-Nov-15 14:00N 29°34' W 116°38'1811.2
2017-Nov-15 12:25N 29°51' W 116°45'511.5
2017-Nov-15 12:00N 29°55' W 116°46'611.8
2017-Nov-15 11:30N 30°01' W 116°48'611.7
2017-Nov-15 10:57N 30°07' W 116°50'511.7
2017-Nov-15 10:30N 30°12' W 116°51'611.6
2017-Nov-15 10:00N 30°18' W 116°53'611.8
2017-Nov-15 09:31N 30°23' W 116°55'611.9
2017-Nov-15 09:00N 30°29' W 116°57'611.9
2017-Nov-15 08:30N 30°35' W 116°58'611.9
2017-Nov-15 07:58N 30°41' W 117°01'712.0
2017-Nov-15 07:25N 30°48' W 117°03'512.0
2017-Nov-15 07:00N 30°52' W 117°04'1111.9
2017-Nov-15 06:05N 31°03' W 117°08'112.8
2017-Nov-15 05:59N 31°04' W 117°08'611.7
2017-Nov-15 05:30N 31°09' W 117°10'612.0
2017-Nov-15 05:00N 31°15' W 117°12'612.6
2017-Nov-15 04:30N 31°21' W 117°14'2312.4
2017-Nov-15 02:40N 31°43' W 117°21'212.3
2017-Nov-15 02:31N 31°45' W 117°21'611.8
2017-Nov-15 02:01N 31°51' W 117°23'611.7
2017-Nov-15 01:31N 31°56' W 117°25'612.0
2017-Nov-15 01:00N 32°02' W 117°27'612.0
2017-Nov-15 00:31N 32°08' W 117°29'611.9
2017-Nov-15 00:00N 32°14' W 117°31'611.8
2017-Nov-14 23:31N 32°19' W 117°34'612.0
2017-Nov-14 23:01N 32°24' W 117°37'611.7
2017-Nov-14 22:31N 32°29' W 117°41'611.8
2017-Nov-14 22:01N 32°34' W 117°44'611.9
2017-Nov-14 21:30N 32°40' W 117°48'611.7
2017-Nov-14 21:01N 32°45' W 117°50'611.7
2017-Nov-14 20:30N 32°51' W 117°53'611.8
2017-Nov-14 20:01N 32°56' W 117°55'611.9
2017-Nov-14 19:30N 33°01' W 117°58'611.8
2017-Nov-14 19:01N 33°07' W 118°01'612.0
2017-Nov-14 18:30N 33°13' W 118°03'611.9
2017-Nov-14 18:00N 33°18' W 118°06'611.9
2017-Nov-14 17:31N 33°24' W 118°08'612.1
2017-Nov-14 17:01N 33°30' W 118°11'612.1
2017-Nov-14 16:30N 33°35' W 118°13'611.2
2017-Nov-14 15:58N 33°41' W 118°12'3 6.6
2017-Nov-14 15:30N 33°44' W 118°13'0 0.4
2017-Nov-14 14:27N 33°44' W 118°13'0 0.0
2017-Nov-14 11:39N 33°44' W 118°13'0 0.0
2017-Nov-14 11:27N 33°44' W 118°13'0 0.0
2017-Nov-14 10:57N 33°44' W 118°13'0 0.0
2017-Nov-14 10:21N 33°44' W 118°13'0 0.1
2017-Nov-14 09:45N 33°44' W 118°13'0 0.0
2017-Nov-14 09:21N 33°44' W 118°13'0 0.0
2017-Nov-14 08:57N 33°44' W 118°13'0 0.1
2017-Nov-14 08:21N 33°44' W 118°13'0 0.1
2017-Nov-14 07:45N 33°44' W 118°13'0 0.1
2017-Nov-14 05:01N 33°44' W 118°13'0 2.9
2017-Nov-14 04:52N 33°44' W 118°13'3 7.0
2017-Nov-14 04:30N 33°42' W 118°11'4 8.9
2017-Nov-14 04:00N 33°37' W 118°11'611.2
2017-Nov-14 03:30N 33°36' W 118°17'611.8
2017-Nov-14 02:58N 33°38' W 118°25'612.1
2017-Nov-14 02:30N 33°41' W 118°30'612.0
2017-Nov-14 02:00N 33°44' W 118°37'612.0
2017-Nov-14 01:30N 33°47' W 118°43'611.8
2017-Nov-14 01:00N 33°50' W 118°49'612.0
2017-Nov-14 00:30N 33°52' W 118°55'611.8
2017-Nov-14 00:00N 33°55' W 119°01'612.3
2017-Nov-13 23:30N 33°59' W 119°08'612.7
2017-Nov-13 23:00N 34°02' W 119°15'713.6
2017-Nov-13 22:30N 34°04' W 119°22'713.4
2017-Nov-13 22:00N 34°06' W 119°30'23711.9
2017-Nov-13 02:00N 37°05' W 122°41'612.6
2017-Nov-13 01:30N 37°11' W 122°43'612.7
2017-Nov-13 01:00N 37°17' W 122°44'511.0
2017-Nov-13 00:31N 37°23' W 122°44'510.4
2017-Nov-13 00:00N 37°28' W 122°43'510.1
2017-Nov-12 23:30N 37°33' W 122°44'5 9.8
2017-Nov-12 23:00N 37°38' W 122°44'5 9.7
2017-Nov-12 22:30N 37°43' W 122°42'5 9.4
2017-Nov-12 22:00N 37°46' W 122°38'713.3
2017-Nov-12 21:31N 37°49' W 122°30'611.1
2017-Nov-12 21:01N 37°49' W 122°23'4 7.5
2017-Nov-12 20:28N 37°46' W 122°21'0 0.1
2017-Nov-12 19:58N 37°46' W 122°21'0 0.0
2017-Nov-12 19:28N 37°46' W 122°21'0 0.0
2017-Nov-12 18:58N 37°46' W 122°21'0 0.0
2017-Nov-12 18:28N 37°46' W 122°21'0 0.0
2017-Nov-12 17:58N 37°46' W 122°21'0 0.1
2017-Nov-12 17:28N 37°46' W 122°21'0 0.0
2017-Nov-12 16:58N 37°46' W 122°21'0 0.0
2017-Nov-12 16:28N 37°46' W 122°21'0 0.3
2017-Nov-12 15:58N 37°45' W 122°21'0 0.1
2017-Nov-12 15:28N 37°45' W 122°21'0 0.0
2017-Nov-12 14:58N 37°45' W 122°21'0 0.0
2017-Nov-12 14:28N 37°45' W 122°21'0 0.1
2017-Nov-12 13:58N 37°45' W 122°21'0 0.0
2017-Nov-12 13:28N 37°45' W 122°21'0 0.0
2017-Nov-12 12:58N 37°45' W 122°21'0 0.0
2017-Nov-12 12:28N 37°45' W 122°21'0 0.0
2017-Nov-12 11:58N 37°45' W 122°21'0 0.0
2017-Nov-12 11:28N 37°45' W 122°21'0 0.0
2017-Nov-12 10:58N 37°45' W 122°21'0 0.1
2017-Nov-12 10:28N 37°45' W 122°21'0 0.4
2017-Nov-12 09:58N 37°46' W 122°21'0 0.1
2017-Nov-12 09:28N 37°46' W 122°21'0 0.2
2017-Nov-12 09:01N 37°46' W 122°21'4 7.9
2017-Nov-12 08:31N 37°49' W 122°23'713.3
2017-Nov-12 08:00N 37°55' W 122°27'714.1
2017-Nov-12 07:31N 38°01' W 122°23'713.0
2017-Nov-12 07:00N 38°04' W 122°15'611.7
2017-Nov-12 06:30N 38°02' W 122°08'0 0.0
2017-Nov-11 02:22N 38°02' W 122°08'2 3.9
2017-Nov-11 01:48N 38°03' W 122°10'3 9.1
2017-Nov-11 01:30N 38°04' W 122°14'4 9.0
2017-Nov-11 01:00N 38°03' W 122°19'4 8.6
2017-Nov-11 00:30N 38°01' W 122°24'5 9.9
2017-Nov-11 00:00N 37°56' W 122°27'5 9.3
2017-Nov-10 23:30N 37°52' W 122°25'4 8.2
2017-Nov-10 23:00N 37°49' W 122°29'611.8
2017-Nov-10 22:30N 37°47' W 122°35'510.5
2017-Nov-10 22:00N 37°44' W 122°41'3 5.8
2017-Nov-10 21:30N 37°42' W 122°44'3 5.0
2017-Nov-10 21:00N 37°41' W 122°47'4 7.7
2017-Nov-10 20:30N 37°39' W 122°51'4 8.1
2017-Nov-10 20:00N 37°36' W 122°55'4 8.3
2017-Nov-10 19:30N 37°34' W 122°59'4 8.4
2017-Nov-10 19:00N 37°32' W 123°04'5 9.1
2017-Nov-10 18:30N 37°29' W 123°08'4 7.9
2017-Nov-10 17:57N 37°25' W 123°10'4 8.8
2017-Nov-10 17:30N 37°22' W 123°08'1 2.8
2017-Nov-10 17:00N 37°21' W 123°06'4 5.7
2017-Nov-10 16:22N 37°19' W 123°03'1010.5
2017-Nov-10 15:26N 37°11' W 122°56'510.7
2017-Nov-10 15:00N 37°07' W 122°53'8210.5
2017-Nov-10 07:16N 35°51' W 122°14'310.2
2017-Nov-10 07:00N 35°49' W 122°13'22 9.9
2017-Nov-10 04:49N 35°29' W 122°01'610.5
2017-Nov-10 04:16N 35°24' W 121°58'410.4
2017-Nov-10 03:51N 35°20' W 121°56'410.3
2017-Nov-10 03:30N 35°17' W 121°54'510.2
2017-Nov-10 03:00N 35°13' W 121°51'510.4
2017-Nov-10 02:30N 35°08' W 121°48'510.4
2017-Nov-10 02:00N 35°03' W 121°45'510.2
2017-Nov-10 01:30N 34°59' W 121°42'510.1
2017-Nov-10 01:00N 34°54' W 121°39'510.2
2017-Nov-10 00:30N 34°50' W 121°36'510.4
2017-Nov-10 00:00N 34°45' W 121°33'510.5
2017-Nov-09 23:30N 34°41' W 121°31'510.3
2017-Nov-09 23:00N 34°36' W 121°28'510.2
2017-Nov-09 22:30N 34°31' W 121°25'510.3
2017-Nov-09 22:00N 34°27' W 121°22'510.5
2017-Nov-09 21:30N 34°22' W 121°19'510.3
2017-Nov-09 21:00N 34°18' W 121°16'510.5
2017-Nov-09 20:30N 34°13' W 121°14'510.6
2017-Nov-09 20:00N 34°08' W 121°11'510.3
2017-Nov-09 19:30N 34°04' W 121°08'510.2
2017-Nov-09 19:00N 33°59' W 121°05'510.7
2017-Nov-09 18:30N 33°54' W 121°02'510.5
2017-Nov-09 18:00N 33°49' W 120°60'510.5
2017-Nov-09 17:30N 33°45' W 120°57'510.2
2017-Nov-09 17:00N 33°40' W 120°54'510.7
2017-Nov-09 16:30N 33°35' W 120°51'610.8
2017-Nov-09 15:59N 33°31' W 120°48'510.6
2017-Nov-09 15:29N 33°26' W 120°45'511.0
2017-Nov-09 15:00N 33°21' W 120°42'510.9
2017-Nov-09 14:30N 33°16' W 120°40'510.8
2017-Nov-09 14:00N 33°11' W 120°37'610.6
2017-Nov-09 13:26N 33°06' W 120°34'510.9
2017-Nov-09 12:56N 33°01' W 120°31'510.9
2017-Nov-09 12:30N 32°57' W 120°28'611.2
2017-Nov-09 12:00N 32°52' W 120°25'  

Dump ship's entire track history